Time;durP1;ratioP1;P1;durP2;ratioP2;P2;SDS_P1;SDS_P2;PMS_P1;PMS_P2;Temp;Humidity;BMP_temperature;BMP_pressure;BME280_temperature;BME280_humidity;BME280_pressure;Samples;Min_cycle;Max_cycle;Signal;HPM_P1;HPM_P2
2022/08/22 00:01:40;;;;;;;16.13;14.52;;;;;;;;;;5019264;28;20112;-76
2022/08/22 00:04:11;;;;;;;14.73;13.23;;;;;;;;;;5023648;28;20082;-77
2022/08/22 00:06:36;;;;;;;14.63;13.32;;;;;;;;;;5021850;28;20029;-77
2022/08/22 00:09:21;;;;;;;16.15;14.45;;;;;;;;;;5020909;28;20033;-76
2022/08/22 00:11:53;;;;;;;15.98;14.35;;;;;;;;;;5011412;28;20037;-76
2022/08/22 00:14:22;;;;;;;16.63;14.82;;;;;;;;;;5010009;28;20037;-75
2022/08/22 00:17:08;;;;;;;17.88;15.43;;;;;;;;;;5021834;28;21189;-76
2022/08/22 00:19:54;;;;;;;16.23;14.65;;;;;;;;;;4989437;28;20112;-77
2022/08/22 00:22:25;;;;;;;15.93;14.32;;;;;;;;;;5022262;28;20968;-78
2022/08/22 00:25:00;;;;;;;16.10;14.40;;;;;;;;;;5021064;28;20453;-78
2022/08/22 00:27:32;;;;;;;16.40;14.73;;;;;;;;;;5020916;28;20036;-76
2022/08/22 00:30:09;;;;;;;16.00;14.50;;;;;;;;;;5012821;28;20033;-76
2022/08/22 00:32:38;;;;;;;15.57;14.10;;;;;;;;;;5012273;28;20049;-76
2022/08/22 00:35:12;;;;;;;15.60;14.00;;;;;;;;;;5020372;28;20037;-76
2022/08/22 00:37:39;;;;;;;15.13;13.60;;;;;;;;;;5014295;28;20112;-77
2022/08/22 00:40:25;;;;;;;13.20;11.88;;;;;;;;;;5013454;28;20087;-76
2022/08/22 00:43:09;;;;;;;15.10;13.57;;;;;;;;;;5016331;28;20045;-75
2022/08/22 00:46:06;;;;;;;16.08;14.60;;;;;;;;;;5010173;28;20412;-75
2022/08/22 00:48:54;;;;;;;14.68;13.27;;;;;;;;;;4938975;28;20053;-77
2022/08/22 00:51:55;;;;;;;16.60;14.98;;;;;;;;;;4931555;28;20281;-76
2022/08/22 00:54:27;;;;;;;15.40;13.80;;;;;;;;;;4909120;28;20059;-78
2022/08/22 00:56:59;;;;;;;15.20;13.82;;;;;;;;;;4940490;28;20046;-77
2022/08/22 00:59:39;;;;;;;15.98;14.55;;;;;;;;;;4917617;28;20473;-76
2022/08/22 01:02:28;;;;;;;14.98;13.48;;;;;;;;;;4940573;28;20394;-76
2022/08/22 01:05:12;;;;;;;14.15;12.88;;;;;;;;;;4940106;28;20079;-75
2022/08/22 01:07:52;;;;;;;13.82;12.52;;;;;;;;;;4940585;28;20035;-76
2022/08/22 01:10:36;;;;;;;14.63;13.32;;;;;;;;;;4938056;28;20446;-76
2022/08/22 01:13:04;;;;;;;13.65;12.35;;;;;;;;;;4934882;28;20121;-77
2022/08/22 01:15:32;;;;;;;14.55;13.15;;;;;;;;;;4935908;28;20039;-77
2022/08/22 01:18:16;;;;;;;14.63;12.30;;;;;;;;;;4940138;28;20059;-76
2022/08/22 01:20:44;;;;;;;14.07;12.75;;;;;;;;;;4940939;28;20061;-76
2022/08/22 01:23:18;;;;;;;13.77;12.50;;;;;;;;;;4947298;28;20043;-78
2022/08/22 01:25:49;;;;;;;12.93;11.73;;;;;;;;;;5019866;28;20087;-75
2022/08/22 01:28:33;;;;;;;12.85;11.63;;;;;;;;;;5016546;28;20400;-76
2022/08/22 01:31:13;;;;;;;13.35;12.05;;;;;;;;;;5015764;28;20041;-76
2022/08/22 01:33:41;;;;;;;13.00;11.90;;;;;;;;;;5018001;28;20116;-77
2022/08/22 01:36:22;;;;;;;13.70;12.30;;;;;;;;;;5012721;28;20445;-76
2022/08/22 01:38:56;;;;;;;13.70;12.50;;;;;;;;;;5019587;28;20117;-77
2022/08/22 01:41:33;;;;;;;13.48;12.27;;;;;;;;;;5012365;28;20045;-78
2022/08/22 01:44:11;;;;;;;15.13;13.73;;;;;;;;;;5012814;28;20115;-78
2022/08/22 01:46:36;;;;;;;13.43;12.23;;;;;;;;;;5015464;28;20032;-77
2022/08/22 01:49:01;;;;;;;13.93;12.73;;;;;;;;;;5020680;28;20033;-77
2022/08/22 01:51:50;;;;;;;14.55;13.25;;;;;;;;;;5020369;28;20052;-76
2022/08/22 01:54:34;;;;;;;14.43;13.13;;;;;;;;;;5019908;28;20040;-78
2022/08/22 01:57:02;;;;;;;15.48;14.02;;;;;;;;;;5021686;28;20255;-76
2022/08/22 01:59:32;;;;;;;15.68;14.18;;;;;;;;;;5010331;28;20037;-75
2022/08/22 02:02:06;;;;;;;14.52;13.20;;;;;;;;;;5019894;28;20091;-77
2022/08/22 02:04:54;;;;;;;15.23;13.32;;;;;;;;;;5019994;28;20448;-74
2022/08/22 02:07:29;;;;;;;14.02;12.73;;;;;;;;;;5019674;28;20034;-77
2022/08/22 02:10:06;;;;;;;13.80;12.52;;;;;;;;;;5020073;28;20057;-75
2022/08/22 02:12:40;;;;;;;13.55;12.35;;;;;;;;;;5009126;28;20036;-75
2022/08/22 02:15:21;;;;;;;13.65;12.00;;;;;;;;;;5011827;28;20038;-78
2022/08/22 02:17:56;;;;;;;12.25;11.07;;;;;;;;;;5023111;28;20033;-77
2022/08/22 02:20:44;;;;;;;14.85;13.55;;;;;;;;;;5012932;28;20461;-77
2022/08/22 02:23:21;;;;;;;13.90;12.50;;;;;;;;;;5013144;28;20112;-77
2022/08/22 02:26:02;;;;;;;13.35;12.05;;;;;;;;;;5024563;28;20029;-76
2022/08/22 02:28:31;;;;;;;15.13;13.10;;;;;;;;;;5024022;28;20127;-76
2022/08/22 02:31:03;;;;;;;13.57;12.38;;;;;;;;;;5023462;28;20108;-77
2022/08/22 02:33:29;;;;;;;14.57;12.77;;;;;;;;;;5024869;28;20040;-76
2022/08/22 02:36:01;;;;;;;13.02;11.93;;;;;;;;;;5024517;28;20353;-75
2022/08/22 02:38:39;;;;;;;13.45;12.25;;;;;;;;;;5025649;28;20468;-76
2022/08/22 02:41:05;;;;;;;12.52;11.40;;;;;;;;;;5023586;28;20033;-78
2022/08/22 02:43:49;;;;;;;13.57;12.23;;;;;;;;;;5019036;28;20017;-78
2022/08/22 02:46:17;;;;;;;13.50;12.27;;;;;;;;;;5019724;28;20360;-77
2022/08/22 02:48:52;;;;;;;14.07;12.77;;;;;;;;;;5025113;28;20034;-76
2022/08/22 02:51:20;;;;;;;14.15;12.85;;;;;;;;;;5024672;28;21116;-77
2022/08/22 02:53:54;;;;;;;13.15;12.02;;;;;;;;;;5024944;28;20463;-76
2022/08/22 02:56:22;;;;;;;12.57;11.38;;;;;;;;;;5021229;28;20033;-76
2022/08/22 02:58:53;;;;;;;12.90;11.70;;;;;;;;;;5016561;28;20104;-76
2022/08/22 03:01:28;;;;;;;14.70;13.05;;;;;;;;;;5003023;28;20051;-75
2022/08/22 03:04:12;;;;;;;13.55;12.20;;;;;;;;;;5025012;28;20021;-77
2022/08/22 03:06:40;;;;;;;13.57;12.27;;;;;;;;;;5016213;28;20365;-78
2022/08/22 03:09:15;;;;;;;13.77;12.32;;;;;;;;;;5019534;28;20034;-75
2022/08/22 03:11:45;;;;;;;13.23;12.13;;;;;;;;;;5021917;28;22825;-74
2022/08/22 03:14:15;;;;;;;14.10;12.70;;;;;;;;;;5024056;28;20014;-74
2022/08/22 03:16:53;;;;;;;13.68;11.88;;;;;;;;;;5015011;28;20025;-75
2022/08/22 03:19:42;;;;;;;13.65;12.38;;;;;;;;;;5018884;28;20052;-75
2022/08/22 03:22:12;;;;;;;13.27;11.97;;;;;;;;;;4939928;28;20066;-75
2022/08/22 03:24:49;;;;;;;13.30;12.20;;;;;;;;;;4949478;28;21542;-75
2022/08/22 03:27:19;;;;;;;14.60;13.20;;;;;;;;;;4951232;28;20151;-76
2022/08/22 03:29:51;;;;;;;13.52;12.10;;;;;;;;;;4949514;28;20071;-77
2022/08/22 03:32:18;;;;;;;13.07;11.88;;;;;;;;;;4950442;28;20146;-76
2022/08/22 03:34:55;;;;;;;13.27;12.13;;;;;;;;;;4950874;28;20084;-75
2022/08/22 03:37:23;;;;;;;13.98;12.75;;;;;;;;;;4945379;28;20054;-75
2022/08/22 03:39:49;;;;;;;14.85;12.52;;;;;;;;;;4942599;28;20047;-76
2022/08/22 03:42:33;;;;;;;13.73;12.52;;;;;;;;;;4950663;28;20579;-76
2022/08/22 03:45:17;;;;;;;12.73;11.60;;;;;;;;;;4942302;28;20045;-76
2022/08/22 03:48:09;;;;;;;13.55;12.25;;;;;;;;;;4942803;28;20047;-76
2022/08/22 03:51:10;;;;;;;14.30;12.85;;;;;;;;;;4896993;29;20035;-76
2022/08/22 03:53:54;;;;;;;12.82;11.63;;;;;;;;;;4838084;29;20056;-78
2022/08/22 03:56:19;;;;;;;13.98;12.68;;;;;;;;;;4838746;29;20049;-76
2022/08/22 03:59:00;;;;;;;13.32;12.13;;;;;;;;;;4844563;29;20400;-76
2022/08/22 04:01:34;;;;;;;14.40;13.13;;;;;;;;;;4863687;29;20041;-76
2022/08/22 04:04:05;;;;;;;14.02;12.73;;;;;;;;;;4854092;29;20691;-76
2022/08/22 04:06:49;;;;;;;13.05;11.75;;;;;;;;;;4859485;29;20036;-76
2022/08/22 04:09:15;;;;;;;14.93;13.52;;;;;;;;;;4854437;29;20045;-76
2022/08/22 04:11:55;;;;;;;14.48;13.13;;;;;;;;;;4854402;29;20112;-75
2022/08/22 04:14:36;;;;;;;14.25;12.93;;;;;;;;;;4853814;29;20064;-75
2022/08/22 04:17:20;;;;;;;14.27;12.88;;;;;;;;;;4854703;29;20117;-75
2022/08/22 04:19:45;;;;;;;14.05;12.60;;;;;;;;;;4859693;29;20064;-75
2022/08/22 04:22:10;;;;;;;15.48;13.98;;;;;;;;;;4857547;29;20036;-75
2022/08/22 04:24:50;;;;;;;14.35;13.13;;;;;;;;;;4855825;29;20437;-74
2022/08/22 04:27:31;;;;;;;14.18;12.88;;;;;;;;;;4928011;28;20049;-77
2022/08/22 04:30:03;;;;;;;13.18;12.07;;;;;;;;;;5015438;28;20090;-77
2022/08/22 04:32:35;;;;;;;14.75;13.35;;;;;;;;;;5007794;28;20076;-78
2022/08/22 04:35:19;;;;;;;16.15;13.20;;;;;;;;;;5009198;28;20033;-80
2022/08/22 04:37:50;;;;;;;13.93;12.70;;;;;;;;;;5011285;28;20067;-77
2022/08/22 04:40:20;;;;;;;14.20;12.88;;;;;;;;;;5011616;28;20034;-75
2022/08/22 04:42:50;;;;;;;14.73;13.18;;;;;;;;;;5020491;28;20042;-75
2022/08/22 04:45:20;;;;;;;15.35;13.95;;;;;;;;;;5010290;28;20116;-78
2022/08/22 04:47:45;;;;;;;;;;;;;;;;;;5011071;28;20036;-78
2022/08/22 04:50:20;;;;;;;14.33;12.87;;;;;;;;;;5013818;28;19913;-77
2022/08/22 04:52:51;;;;;;;14.82;13.43;;;;;;;;;;5014814;28;20356;-78
2022/08/22 04:55:16;;;;;;;15.65;14.00;;;;;;;;;;5011246;28;20030;-80
2022/08/22 04:57:47;;;;;;;14.05;12.70;;;;;;;;;;5013549;28;20453;-77
2022/08/22 05:00:14;;;;;;;14.20;12.23;;;;;;;;;;5022566;28;20017;-76
2022/08/22 05:02:44;;;;;;;15.13;13.63;;;;;;;;;;5025902;28;20036;-76
2022/08/22 05:05:14;;;;;;;13.73;12.32;;;;;;;;;;5022176;28;20018;-75
2022/08/22 05:07:46;;;;;;;14.50;13.20;;;;;;;;;;5019346;28;20120;-78
2022/08/22 05:10:20;;;;;;;13.88;12.52;;;;;;;;;;5022809;28;20029;-76
2022/08/22 05:12:52;;;;;;;14.00;12.70;;;;;;;;;;5022185;28;20025;-79
2022/08/22 05:15:31;;;;;;;14.63;13.32;;;;;;;;;;5022809;28;20121;-78
2022/08/22 05:18:00;;;;;;;14.40;13.10;;;;;;;;;;5023835;28;20033;-77
2022/08/22 05:20:26;;;;;;;13.98;12.77;;;;;;;;;;5022410;28;20033;-77
2022/08/22 05:23:06;;;;;;;14.10;12.70;;;;;;;;;;5025691;28;20032;-81
2022/08/22 05:25:34;;;;;;;13.65;12.35;;;;;;;;;;5023843;28;20086;-77
2022/08/22 05:28:35;;;;;;;15.57;14.05;;;;;;;;;;5022193;28;20368;-76
2022/08/22 05:31:12;;;;;;;15.68;14.23;;;;;;;;;;4966597;28;20037;-75
2022/08/22 05:33:37;;;;;;;17.15;15.52;;;;;;;;;;4969806;28;20035;-75
2022/08/22 05:36:05;;;;;;;18.48;16.58;;;;;;;;;;4967084;28;20027;-78
2022/08/22 05:38:32;;;;;;;17.15;15.65;;;;;;;;;;4966581;28;20134;-77
2022/08/22 05:41:04;;;;;;;19.02;17.23;;;;;;;;;;4953765;28;20035;-75
2022/08/22 05:43:31;;;;;;;16.65;15.07;;;;;;;;;;4963588;28;20040;-79
2022/08/22 05:45:57;;;;;;;18.60;16.88;;;;;;;;;;4968128;28;20039;-77
2022/08/22 05:48:26;;;;;;;15.05;13.55;;;;;;;;;;4969407;28;20461;-76
2022/08/22 05:50:55;;;;;;;14.88;13.57;;;;;;;;;;4971842;28;20049;-77
2022/08/22 05:53:29;;;;;;;16.50;13.70;;;;;;;;;;4973621;28;20035;-75
2022/08/22 05:56:09;;;;;;;16.70;15.07;;;;;;;;;;4971542;28;20031;-78
2022/08/22 05:58:42;;;;;;;17.27;14.68;;;;;;;;;;4972612;28;20247;-75
2022/08/22 06:01:14;;;;;;;15.65;14.25;;;;;;;;;;4974564;28;20077;-78
2022/08/22 06:03:45;;;;;;;15.85;14.40;;;;;;;;;;4972164;28;20105;-77
2022/08/22 06:06:16;;;;;;;15.77;14.27;;;;;;;;;;5025141;28;20060;-76
2022/08/22 06:08:44;;;;;;;14.52;13.23;;;;;;;;;;5024375;28;20043;-76
2022/08/22 06:11:32;;;;;;;15.70;13.82;;;;;;;;;;5025748;28;20060;-78
2022/08/22 06:14:07;;;;;;;14.75;13.23;;;;;;;;;;5023988;28;20022;-77
2022/08/22 06:16:45;;;;;;;15.68;14.18;;;;;;;;;;5025227;28;20033;-78
2022/08/22 06:19:13;;;;;;;14.98;13.57;;;;;;;;;;5015305;28;20064;-74
2022/08/22 06:21:40;;;;;;;15.10;13.70;;;;;;;;;;5022871;28;20037;-76
2022/08/22 06:24:08;;;;;;;16.02;14.35;;;;;;;;;;5024399;28;20033;-76
2022/08/22 06:26:39;;;;;;;14.85;13.50;;;;;;;;;;5023813;28;20032;-78
2022/08/22 06:29:06;;;;;;;15.43;14.02;;;;;;;;;;5025815;28;20095;-75
2022/08/22 06:31:33;;;;;;;16.45;14.95;;;;;;;;;;5019942;28;20036;-77
2022/08/22 06:34:03;;;;;;;17.80;16.08;;;;;;;;;;5018217;28;20113;-77
2022/08/22 06:36:32;;;;;;;16.33;14.73;;;;;;;;;;5024357;28;20025;-76
2022/08/22 06:38:57;;;;;;;;;;;;;;;;;;5024623;28;20025;-75
2022/08/22 06:41:25;;;;;;;14.77;13.37;;;;;;;;;;5022975;28;20392;-76
2022/08/22 06:43:51;;;;;;;17.13;15.43;;;;;;;;;;5026041;28;20017;-76
2022/08/22 06:46:18;;;;;;;18.50;16.55;;;;;;;;;;5023077;28;20357;-73
2022/08/22 06:48:44;;;;;;;18.52;16.63;;;;;;;;;;5023948;28;20128;-73
2022/08/22 06:51:10;;;;;;;19.48;17.52;;;;;;;;;;5024342;28;20413;-75
2022/08/22 06:53:38;;;;;;;18.27;15.95;;;;;;;;;;5023150;28;20021;-76
2022/08/22 06:56:04;;;;;;;19.98;16.55;;;;;;;;;;5002280;28;20451;-75
2022/08/22 06:58:37;;;;;;;20.83;17.85;;;;;;;;;;5023536;28;20449;-78
2022/08/22 07:01:33;;;;;;;17.52;15.75;;;;;;;;;;5023822;28;20083;-75
2022/08/22 07:04:07;;;;;;;19.35;17.35;;;;;;;;;;4942092;28;20074;-75
2022/08/22 07:06:35;;;;;;;19.33;17.42;;;;;;;;;;4943194;28;20050;-75
2022/08/22 07:09:00;;;;;;;19.73;17.77;;;;;;;;;;4942312;28;20055;-75
2022/08/22 07:11:30;;;;;;;18.88;16.98;;;;;;;;;;4941544;28;20035;-75
2022/08/22 07:13:56;;;;;;;18.17;16.38;;;;;;;;;;4943907;28;20073;-76
2022/08/22 07:16:27;;;;;;;19.30;16.95;;;;;;;;;;4942331;28;20474;-74
2022/08/22 07:18:53;;;;;;;20.15;18.15;;;;;;;;;;4941779;28;20047;-77
2022/08/22 07:21:26;;;;;;;20.85;18.65;;;;;;;;;;4940002;28;20372;-77
2022/08/22 07:23:52;;;;;;;21.38;18.88;;;;;;;;;;4943659;28;20471;-77
2022/08/22 07:26:21;;;;;;;24.05;21.70;;;;;;;;;;4943775;28;20484;-79
2022/08/22 07:28:51;;;;;;;21.70;19.40;;;;;;;;;;4942715;28;20045;-74
2022/08/22 07:31:24;;;;;;;24.17;21.70;;;;;;;;;;4942809;28;20167;-74
2022/08/22 07:33:56;;;;;;;21.83;19.63;;;;;;;;;;4942955;28;20027;-76
2022/08/22 07:36:22;;;;;;;21.85;19.80;;;;;;;;;;4943586;28;20462;-77
2022/08/22 07:39:08;;;;;;;18.75;16.98;;;;;;;;;;4942474;28;20132;-76
2022/08/22 07:41:53;;;;;;;19.67;17.73;;;;;;;;;;5021116;28;20046;-77
2022/08/22 07:44:21;;;;;;;21.02;19.02;;;;;;;;;;5021413;28;20048;-76
2022/08/22 07:46:49;;;;;;;21.15;19.15;;;;;;;;;;5022821;28;20022;-76
2022/08/22 07:49:20;;;;;;;18.35;16.45;;;;;;;;;;5023618;28;20021;-76
2022/08/22 07:51:49;;;;;;;20.55;18.50;;;;;;;;;;5022996;28;20034;-76
2022/08/22 07:54:22;;;;;;;19.33;17.42;;;;;;;;;;5019133;28;20025;-77
2022/08/22 07:57:00;;;;;;;17.48;15.57;;;;;;;;;;5009250;28;20030;-74
2022/08/22 07:59:26;;;;;;;19.88;17.98;;;;;;;;;;4994791;28;20097;-76
2022/08/22 08:01:54;;;;;;;19.63;17.83;;;;;;;;;;5009835;28;20051;-76
2022/08/22 08:04:28;;;;;;;18.48;16.67;;;;;;;;;;5009874;28;20053;-75
2022/08/22 08:06:55;;;;;;;17.88;16.17;;;;;;;;;;5018568;28;20025;-75
2022/08/22 08:09:20;;;;;;;17.08;15.45;;;;;;;;;;5021787;28;20036;-74
2022/08/22 08:11:48;;;;;;;16.52;14.82;;;;;;;;;;5024989;28;20029;-74
2022/08/22 08:14:14;;;;;;;17.98;15.90;;;;;;;;;;5022329;28;20060;-75
2022/08/22 08:16:46;;;;;;;15.20;13.80;;;;;;;;;;5023457;28;20026;-75
2022/08/22 08:19:13;;;;;;;18.38;16.52;;;;;;;;;;5019380;28;20453;-77
2022/08/22 08:21:41;;;;;;;17.20;15.63;;;;;;;;;;5009268;28;20025;-76
2022/08/22 08:24:10;;;;;;;16.60;15.00;;;;;;;;;;5012172;28;20453;-75
2022/08/22 08:26:36;;;;;;;;;;;;;;;;;;5022081;28;20025;-75
2022/08/22 08:29:02;;;;;;;14.93;13.33;;;;;;;;;;5003465;28;19916;-76
2022/08/22 08:31:36;;;;;;;16.08;14.57;;;;;;;;;;5022417;28;20029;-76
2022/08/22 08:34:04;;;;;;;15.13;13.77;;;;;;;;;;5022752;28;20029;-75
2022/08/22 08:36:29;;;;;;;14.65;13.32;;;;;;;;;;5022945;28;20078;-78
2022/08/22 08:39:11;;;;;;;14.40;12.90;;;;;;;;;;5022755;28;20042;-76
2022/08/22 08:41:48;;;;;;;13.25;12.05;;;;;;;;;;5021946;28;20091;-76
2022/08/22 08:44:20;;;;;;;13.82;12.57;;;;;;;;;;5021675;28;20021;-77
2022/08/22 08:47:04;;;;;;;12.02;11.02;;;;;;;;;;5009974;28;20017;-78
2022/08/22 08:49:47;;;;;;;10.77;9.88;;;;;;;;;;5010297;28;20032;-78
2022/08/22 08:52:42;;;;;;;11.57;10.57;;;;;;;;;;5009611;28;20052;-78
2022/08/22 08:55:23;;;;;;;13.18;11.93;;;;;;;;;;4988958;28;20113;-78
2022/08/22 08:57:58;;;;;;;13.50;11.48;;;;;;;;;;5006933;28;20037;-77
2022/08/22 09:00:44;;;;;;;12.63;11.43;;;;;;;;;;5009783;28;20079;-76
2022/08/22 09:03:09;;;;;;;11.07;10.07;;;;;;;;;;5010978;28;20099;-78
2022/08/22 09:05:46;;;;;;;12.05;11.00;;;;;;;;;;5010970;28;20029;-78
2022/08/22 09:08:29;;;;;;;12.73;11.63;;;;;;;;;;5006488;28;20369;-79
2022/08/22 09:10:57;;;;;;;12.05;10.80;;;;;;;;;;5009240;28;20025;-77
2022/08/22 09:13:40;;;;;;;11.35;10.27;;;;;;;;;;5006908;28;20034;-76
2022/08/22 09:16:31;;;;;;;14.52;13.23;;;;;;;;;;5007349;28;20021;-78
2022/08/22 09:18:59;;;;;;;9.93;9.02;;;;;;;;;;5008663;28;20029;-77
2022/08/22 09:21:37;;;;;;;10.07;9.17;;;;;;;;;;5008579;28;20029;-77
2022/08/22 09:24:28;;;;;;;12.07;11.02;;;;;;;;;;5012758;28;20416;-76
2022/08/22 09:26:57;;;;;;;11.20;10.20;;;;;;;;;;4979423;28;20125;-76
2022/08/22 09:29:38;;;;;;;12.32;11.13;;;;;;;;;;4980525;28;20034;-78
2022/08/22 09:32:22;;;;;;;11.27;10.27;;;;;;;;;;4980211;28;20044;-76
2022/08/22 09:35:03;;;;;;;11.45;10.45;;;;;;;;;;4981612;28;20050;-76
2022/08/22 09:37:37;;;;;;;11.32;10.15;;;;;;;;;;4982357;28;20038;-75
2022/08/22 09:40:12;;;;;;;10.23;9.23;;;;;;;;;;4982040;28;20435;-76
2022/08/22 09:42:44;;;;;;;10.55;9.55;;;;;;;;;;4981593;28;20038;-77
2022/08/22 09:45:12;;;;;;;11.73;9.43;;;;;;;;;;4982644;28;20040;-76
2022/08/22 09:47:51;;;;;;;11.17;10.17;;;;;;;;;;4981572;28;20034;-78
2022/08/22 09:50:29;;;;;;;10.75;9.75;;;;;;;;;;4980307;28;20042;-76
2022/08/22 09:53:06;;;;;;;10.85;9.75;;;;;;;;;;4982302;28;20130;-78
2022/08/22 09:55:39;;;;;;;10.68;9.68;;;;;;;;;;4964914;28;20077;-76
2022/08/22 09:58:18;;;;;;;12.32;10.98;;;;;;;;;;4979629;28;20054;-77
2022/08/22 10:00:49;;;;;;;12.38;11.18;;;;;;;;;;4978063;28;20112;-78
2022/08/22 10:03:27;;;;;;;12.00;10.95;;;;;;;;;;4992626;28;20037;-80
2022/08/22 10:05:54;;;;;;;12.75;11.57;;;;;;;;;;5021847;28;20051;-77
2022/08/22 10:08:22;;;;;;;12.55;11.35;;;;;;;;;;5021129;28;20033;-77
2022/08/22 10:11:03;;;;;;;14.93;13.40;;;;;;;;;;5021458;28;20017;-77
2022/08/22 10:13:47;;;;;;;14.05;12.85;;;;;;;;;;5016346;28;20029;-76
2022/08/22 10:16:15;;;;;;;12.27;11.18;;;;;;;;;;5011405;28;20025;-78
2022/08/22 10:18:59;;;;;;;12.25;11.15;;;;;;;;;;5019612;28;20124;-77
2022/08/22 10:21:25;;;;;;;11.15;10.05;;;;;;;;;;5023661;28;20080;-78
2022/08/22 10:23:53;;;;;;;10.88;9.88;;;;;;;;;;5018811;28;20053;-77
2022/08/22 10:26:50;;;;;;;10.70;9.73;;;;;;;;;;5007193;28;20033;-77
2022/08/22 10:29:34;;;;;;;11.57;10.57;;;;;;;;;;4979770;28;20046;-76
2022/08/22 10:32:20;;;;;;;11.07;9.98;;;;;;;;;;4986399;28;20381;-77
2022/08/22 10:34:48;;;;;;;11.00;9.90;;;;;;;;;;4977688;28;20066;-77
2022/08/22 10:37:13;;;;;;;;;;;;;;;;;;4988609;28;20041;-77
2022/08/22 10:39:39;;;;;;;10.83;9.83;;;;;;;;;;4990364;28;20106;-75
2022/08/22 10:42:22;;;;;;;11.07;9.57;;;;;;;;;;4989805;28;20075;-77
2022/08/22 10:44:48;;;;;;;10.82;9.73;;;;;;;;;;4977054;28;20182;-81
2022/08/22 10:47:16;;;;;;;12.20;11.10;;;;;;;;;;4986359;28;21120;-79
2022/08/22 10:49:49;;;;;;;12.90;11.53;;;;;;;;;;4992906;28;20491;-76
2022/08/22 10:52:25;;;;;;;12.15;11.05;;;;;;;;;;4989166;28;20046;-76
2022/08/22 10:54:59;;;;;;;11.73;10.52;;;;;;;;;;4992501;28;20563;-80
2022/08/22 10:57:36;;;;;;;10.65;9.73;;;;;;;;;;4991027;28;20162;-77
2022/08/22 11:00:08;;;;;;;10.75;9.80;;;;;;;;;;4992440;28;20501;-76
2022/08/22 11:02:48;;;;;;;10.30;9.38;;;;;;;;;;4988539;28;20106;-78
2022/08/22 11:05:20;;;;;;;10.73;9.73;;;;;;;;;;5016606;28;20056;-80
2022/08/22 11:07:48;;;;;;;11.02;10.13;;;;;;;;;;5024118;28;20060;-78
2022/08/22 11:10:28;;;;;;;9.93;9.03;;;;;;;;;;5024872;28;20017;-77
2022/08/22 11:12:59;;;;;;;10.88;9.93;;;;;;;;;;5024123;28;20769;-78
2022/08/22 11:15:43;;;;;;;11.10;10.10;;;;;;;;;;5017919;28;20796;-76
2022/08/22 11:18:14;;;;;;;10.93;10.00;;;;;;;;;;5015048;28;20539;-76
2022/08/22 11:20:39;;;;;;;11.13;10.05;;;;;;;;;;5011895;28;20025;-75
2022/08/22 11:23:20;;;;;;;10.52;9.55;;;;;;;;;;5022867;28;20032;-77
2022/08/22 11:25:54;;;;;;;11.02;10.13;;;;;;;;;;5021043;28;20033;-77
2022/08/22 11:28:20;;;;;;;9.52;8.55;;;;;;;;;;5026845;28;20033;-78
2022/08/22 11:30:45;;;;;;;10.57;9.57;;;;;;;;;;5024546;28;20090;-79
2022/08/22 11:33:15;;;;;;;11.13;10.13;;;;;;;;;;5023650;28;20033;-78
2022/08/22 11:35:45;;;;;;;11.23;10.18;;;;;;;;;;5025558;28;20021;-78
2022/08/22 11:38:16;;;;;;;9.55;8.75;;;;;;;;;;5025873;28;20126;-77
2022/08/22 11:40:51;;;;;;;11.57;10.48;;;;;;;;;;5028093;28;20507;-78
2022/08/22 11:43:19;;;;;;;11.68;9.82;;;;;;;;;;5022827;28;20127;-79
2022/08/22 11:45:46;;;;;;;11.82;10.80;;;;;;;;;;5023574;28;20027;-76
2022/08/22 11:48:18;;;;;;;11.10;10.00;;;;;;;;;;5024958;28;20064;-77
2022/08/22 11:51:06;;;;;;;10.55;9.65;;;;;;;;;;5024595;28;20025;-79
2022/08/22 11:53:34;;;;;;;10.38;9.48;;;;;;;;;;5007031;28;20416;-79
2022/08/22 11:56:00;;;;;;;;;;;;;;;;;;5026120;28;20481;-76
2022/08/22 11:58:32;;;;;;;10.77;9.77;;;;;;;;;;5028420;28;19991;-77
2022/08/22 12:01:01;;;;;;;10.13;9.23;;;;;;;;;;5023430;28;20030;-76
2022/08/22 12:03:35;;;;;;;11.88;10.77;;;;;;;;;;5023613;28;20789;-78
2022/08/22 12:06:19;;;;;;;10.52;9.63;;;;;;;;;;5024718;28;20030;-78
2022/08/22 12:08:50;;;;;;;10.70;9.35;;;;;;;;;;5023097;28;20408;-78
2022/08/22 12:11:18;;;;;;;11.13;10.23;;;;;;;;;;5022525;28;20547;-79
2022/08/22 12:13:50;;;;;;;10.13;9.13;;;;;;;;;;5024012;28;20037;-79
2022/08/22 12:16:23;;;;;;;10.95;9.82;;;;;;;;;;5023920;28;20021;-80
2022/08/22 12:19:09;;;;;;;10.73;9.73;;;;;;;;;;5022656;28;20033;-79
2022/08/22 12:21:38;;;;;;;10.02;8.95;;;;;;;;;;5022486;28;20072;-78
2022/08/22 12:24:36;;;;;;;10.98;10.07;;;;;;;;;;5024595;28;20029;-78
2022/08/22 12:27:04;;;;;;;10.85;9.25;;;;;;;;;;5006949;28;20029;-76
2022/08/22 12:29:48;;;;;;;10.93;9.93;;;;;;;;;;5023647;28;20048;-75
2022/08/22 12:32:32;;;;;;;10.43;9.38;;;;;;;;;;5014092;28;20291;-77
2022/08/22 12:35:03;;;;;;;9.68;8.88;;;;;;;;;;5012917;28;20054;-78
2022/08/22 12:37:33;;;;;;;10.77;9.48;;;;;;;;;;5023710;28;20064;-77
2022/08/22 12:40:08;;;;;;;10.65;9.75;;;;;;;;;;5015895;28;20102;-76
2022/08/22 12:42:40;;;;;;;14.07;12.00;;;;;;;;;;5010130;28;20049;-78
2022/08/22 12:45:20;;;;;;;9.90;9.00;;;;;;;;;;5009019;28;20079;-76
2022/08/22 12:47:57;;;;;;;61.90;30.27;;;;;;;;;;5010057;28;20029;-76
2022/08/22 12:50:28;;;;;;;74.68;38.50;;;;;;;;;;5020559;28;20037;-76
2022/08/22 12:53:12;;;;;;;21.95;16.67;;;;;;;;;;5021339;28;20030;-78
2022/08/22 12:55:37;;;;;;;26.27;23.05;;;;;;;;;;5021875;28;20105;-76
2022/08/22 12:58:12;;;;;;;26.67;23.95;;;;;;;;;;4993435;28;20128;-77
2022/08/22 13:00:43;;;;;;;11.15;10.15;;;;;;;;;;5021098;28;20025;-77
2022/08/22 13:03:19;;;;;;;18.73;16.90;;;;;;;;;;5021922;28;20360;-77
2022/08/22 13:05:46;;;;;;;18.77;16.90;;;;;;;;;;5021744;28;20017;-77
2022/08/22 13:08:15;;;;;;;16.35;14.52;;;;;;;;;;5002244;28;20352;-78
2022/08/22 13:10:45;;;;;;;11.38;10.48;;;;;;;;;;5009390;28;20152;-77
2022/08/22 13:13:12;;;;;;;9.55;8.65;;;;;;;;;;5017888;28;20133;-77
2022/08/22 13:15:38;;;;;;;11.80;10.70;;;;;;;;;;5022166;28;20083;-77
2022/08/22 13:18:05;;;;;;;13.10;11.90;;;;;;;;;;5021856;28;20041;-78
2022/08/22 13:20:36;;;;;;;13.77;12.52;;;;;;;;;;5020738;28;20076;-78
2022/08/22 13:23:06;;;;;;;11.25;10.18;;;;;;;;;;5012487;28;20026;-77
2022/08/22 13:25:51;;;;;;;9.00;8.20;;;;;;;;;;5010716;28;20029;-76
2022/08/22 13:28:17;;;;;;;9.18;8.38;;;;;;;;;;5005171;28;20976;-76
2022/08/22 13:30:42;;;;;;;8.98;8.18;;;;;;;;;;5007260;28;20083;-77
2022/08/22 13:33:34;;;;;;;10.23;9.25;;;;;;;;;;5006534;28;20459;-76
2022/08/22 13:36:05;;;;;;;9.15;8.35;;;;;;;;;;5004130;28;20052;-77
2022/08/22 13:38:37;;;;;;;10.57;9.25;;;;;;;;;;5009809;28;20432;-76
2022/08/22 13:41:02;;;;;;;9.50;8.60;;;;;;;;;;5007840;28;20172;-76
2022/08/22 13:43:33;;;;;;;9.98;9.13;;;;;;;;;;5012357;28;20772;-78
2022/08/22 13:46:00;;;;;;;10.32;9.48;;;;;;;;;;5008181;28;20030;-77
2022/08/22 13:48:28;;;;;;;9.38;8.48;;;;;;;;;;5016043;28;20047;-77
2022/08/22 13:50:57;;;;;;;10.05;9.15;;;;;;;;;;5012857;28;20064;-76
2022/08/22 13:53:31;;;;;;;9.88;8.95;;;;;;;;;;5005988;28;20034;-76
2022/08/22 13:56:04;;;;;;;9.35;8.55;;;;;;;;;;5008997;28;20056;-77
2022/08/22 13:58:48;;;;;;;9.23;8.43;;;;;;;;;;5008858;28;20041;-76
2022/08/22 14:01:17;;;;;;;44.75;32.20;;;;;;;;;;5006232;28;20033;-74
2022/08/22 14:03:51;;;;;;;49.92;34.30;;;;;;;;;;5007035;28;20021;-78
2022/08/22 14:06:25;;;;;;;21.90;18.02;;;;;;;;;;5013532;28;20033;-75
2022/08/22 14:08:54;;;;;;;12.60;11.27;;;;;;;;;;5008524;28;20099;-76
2022/08/22 14:11:29;;;;;;;11.10;9.68;;;;;;;;;;5008269;28;20026;-76
2022/08/22 14:13:58;;;;;;;12.48;11.15;;;;;;;;;;5012174;28;20104;-77
2022/08/22 14:16:24;;;;;;;10.73;9.70;;;;;;;;;;5013630;28;20029;-76
2022/08/22 14:18:52;;;;;;;11.13;10.13;;;;;;;;;;5010728;28;20099;-74
2022/08/22 14:21:23;;;;;;;28.33;25.35;;;;;;;;;;5012540;28;20061;-75
2022/08/22 14:23:53;;;;;;;25.15;22.70;;;;;;;;;;5011343;28;20037;-74
2022/08/22 14:26:28;;;;;;;18.58;16.95;;;;;;;;;;5012600;28;20025;-75
2022/08/22 14:28:55;;;;;;;10.75;9.15;;;;;;;;;;5013064;28;20036;-73
2022/08/22 14:31:23;;;;;;;9.90;9.10;;;;;;;;;;5011371;28;20072;-77
2022/08/22 14:34:01;;;;;;;13.37;11.83;;;;;;;;;;5015855;28;21065;-76
2022/08/22 14:36:53;;;;;;;11.90;10.90;;;;;;;;;;5012273;28;20388;-77
2022/08/22 14:39:32;;;;;;;11.00;10.00;;;;;;;;;;5012334;28;20047;-77
2022/08/22 14:42:12;;;;;;;9.90;9.00;;;;;;;;;;5011617;28;20393;-77
2022/08/22 14:44:43;;;;;;;11.02;10.05;;;;;;;;;;5010580;28;20021;-76
2022/08/22 14:47:21;;;;;;;10.75;9.75;;;;;;;;;;5010915;28;20112;-76
2022/08/22 14:49:51;;;;;;;11.40;10.27;;;;;;;;;;4993265;28;21813;-76
2022/08/22 14:52:29;;;;;;;11.18;10.15;;;;;;;;;;5012022;28;20017;-76
2022/08/22 14:55:16;;;;;;;11.15;10.00;;;;;;;;;;5017383;28;20552;-75
2022/08/22 14:57:44;;;;;;;11.25;10.27;;;;;;;;;;5022373;28;20048;-74
2022/08/22 15:00:11;;;;;;;12.05;11.05;;;;;;;;;;5024116;28;20082;-76